createdAt,value
2023-05-02T00:01:07.775Z,380.33
2023-05-02T00:12:22.198Z,431.43
2023-05-02T00:17:22.263Z,423.30
2023-05-02T00:22:22.065Z,416.76
2023-05-02T00:27:22.044Z,414.71
2023-05-02T00:32:22.003Z,414.20
2023-05-02T00:37:21.881Z,411.93
2023-05-02T00:42:21.820Z,408.43
2023-05-02T00:47:21.772Z,405.73
2023-05-02T00:52:21.658Z,404.03
2023-05-02T00:57:21.659Z,400.67
2023-05-02T01:02:21.597Z,399.48
2023-05-02T01:07:21.474Z,397.13
2023-05-02T01:12:21.386Z,392.28
2023-05-02T01:17:21.453Z,391.82
2023-05-02T01:22:21.291Z,392.05
2023-05-02T01:27:21.230Z,388.88
2023-05-02T01:32:21.151Z,390.01
2023-05-02T01:37:21.121Z,390.23
2023-05-02T01:42:21.027Z,386.43
2023-05-02T01:47:21.038Z,386.43
2023-05-02T01:52:20.861Z,387.10
2023-05-02T01:57:20.826Z,383.14
2023-05-02T02:02:20.752Z,383.58
2023-05-02T02:07:20.736Z,381.62
2023-05-02T02:12:20.614Z,384.67
2023-05-02T02:17:20.558Z,381.62
2023-05-02T02:22:20.479Z,381.84
2023-05-02T02:27:20.463Z,384.23
2023-05-02T02:32:20.388Z,383.14
2023-05-02T02:37:20.312Z,386.65
2023-05-02T02:42:20.204Z,389.33
2023-05-02T02:47:20.155Z,390.91
2023-05-02T02:52:20.142Z,395.50
2023-05-02T02:57:20.038Z,395.96
2023-05-02T03:02:19.964Z,395.27
2023-05-02T03:07:19.874Z,394.80
2023-05-02T03:12:19.844Z,392.73
2023-05-02T03:17:20.436Z,394.57
2023-05-02T03:22:19.708Z,398.54
2023-05-02T03:27:19.641Z,398.54
2023-05-02T03:32:19.557Z,398.30
2023-05-02T03:37:19.500Z,394.80
2023-05-02T03:42:19.429Z,397.13
2023-05-02T03:47:19.371Z,395.73
2023-05-02T03:52:19.271Z,394.34
2023-05-02T03:57:19.217Z,390.91
2023-05-02T04:02:19.266Z,387.99
2023-05-02T04:07:19.114Z,386.43
2023-05-02T04:12:19.018Z,389.11
2023-05-02T04:17:48.184Z,392.96
2023-05-02T04:22:40.418Z,389.78
2023-05-02T04:27:40.343Z,393.65
2023-05-02T04:32:40.347Z,391.82
2023-05-02T04:37:40.207Z,390.01
2023-05-02T04:42:40.178Z,387.54
2023-05-02T04:47:40.189Z,387.10
2023-05-02T04:52:40.011Z,389.11
2023-05-02T04:57:39.948Z,390.46
2023-05-02T05:02:39.932Z,394.11
2023-05-02T05:07:39.759Z,392.96
2023-05-02T05:12:39.734Z,394.34
2023-05-02T05:17:39.753Z,392.73
2023-05-02T05:22:39.618Z,389.78
2023-05-02T05:27:39.511Z,388.88
2023-05-02T05:32:39.527Z,387.54
2023-05-02T05:37:39.414Z,384.89
2023-05-02T05:42:39.438Z,383.58
2023-05-02T05:47:39.395Z,385.99
2023-05-02T05:52:39.203Z,385.99
2023-05-02T05:57:39.127Z,383.79
2023-05-02T06:02:39.240Z,385.11
2023-05-02T06:07:39.004Z,384.45
2023-05-02T06:12:38.933Z,380.76
2023-05-02T06:17:38.939Z,380.33
2023-05-02T06:22:38.796Z,378.83
2023-05-02T06:27:38.725Z,374.71
2023-05-02T06:32:38.713Z,373.44
2023-05-02T06:37:38.601Z,373.86
2023-05-02T06:42:38.570Z,381.19
2023-05-02T06:47:38.539Z,381.19
2023-05-02T06:52:38.404Z,379.05
2023-05-02T06:57:38.297Z,375.55
2023-05-02T07:02:38.379Z,373.02
2023-05-02T07:07:38.163Z,369.70
2023-05-02T07:12:38.126Z,369.28
2023-05-02T07:17:38.061Z,364.82
2023-05-02T07:22:37.969Z,368.46
2023-05-02T07:27:37.937Z,366.43
2023-05-02T07:32:37.948Z,364.02
2023-05-02T07:37:37.824Z,366.83
2023-05-02T07:42:37.798Z,364.02
2023-05-02T07:47:37.759Z,363.22
2023-05-02T07:52:37.644Z,357.74
2023-05-02T07:57:37.539Z,360.46
2023-05-02T08:02:37.609Z,361.64
2023-05-02T08:07:37.540Z,362.82
2023-05-02T08:12:37.320Z,356.97
2023-05-02T08:17:37.283Z,352.05
2023-05-02T08:22:37.196Z,340.48
2023-05-02T08:27:37.114Z,335.32
2023-05-02T08:32:37.152Z,325.77
2023-05-02T08:37:37.007Z,321.67
2023-05-02T08:42:36.949Z,310.24
2023-05-02T08:47:36.919Z,302.88
2023-05-02T08:52:36.794Z,298.52
2023-05-02T08:57:36.788Z,294.54
2023-05-02T09:02:36.715Z,291.18
2023-05-02T09:07:36.917Z,284.44
2023-05-02T09:12:36.528Z,281.79
2023-05-02T09:17:36.553Z,280.12
2023-05-02T09:22:36.421Z,282.75
2023-05-02T09:27:36.358Z,286.65
2023-05-02T09:32:36.347Z,288.15
2023-05-02T09:37:36.259Z,293.24
2023-05-02T09:42:36.139Z,291.69
2023-05-02T09:47:36.099Z,294.80
2023-05-02T09:52:35.988Z,296.91
2023-05-02T09:57:35.935Z,294.28
2023-05-02T10:02:36.117Z,290.42
2023-05-02T10:07:35.784Z,287.90
2023-05-02T10:12:35.713Z,289.40
2023-05-02T10:17:35.738Z,285.42
2023-05-02T10:22:35.589Z,283.47
2023-05-02T10:27:35.569Z,287.40
2023-05-02T10:32:35.525Z,287.65
2023-05-02T10:37:35.431Z,289.15
2023-05-02T10:42:35.396Z,289.15
2023-05-02T10:47:35.321Z,287.65
2023-05-02T10:52:35.191Z,287.40
2023-05-02T10:57:35.171Z,289.66
2023-05-02T11:02:35.175Z,292.98
2023-05-02T11:07:35.003Z,296.65
2023-05-02T11:12:34.946Z,295.86
2023-05-02T11:17:34.972Z,293.24
2023-05-02T11:22:35.161Z,295.59
2023-05-02T11:27:34.734Z,295.33
2023-05-02T11:32:34.714Z,293.76
2023-05-02T11:37:34.633Z,294.28
2023-05-02T11:42:34.542Z,293.76
2023-05-02T11:47:34.575Z,292.98
2023-05-02T11:52:34.445Z,291.69
2023-05-02T11:57:34.333Z,293.76
2023-05-02T12:02:34.347Z,293.24
2023-05-02T12:07:34.232Z,292.46
2023-05-02T12:12:34.123Z,292.46
2023-05-02T12:17:34.082Z,293.76
2023-05-02T12:22:34.007Z,289.15
2023-05-02T12:27:33.934Z,281.79
2023-05-02T12:32:33.923Z,276.16
2023-05-02T12:37:33.840Z,272.53
2023-05-02T12:42:33.720Z,272.98
2023-05-02T12:47:33.714Z,274.78
2023-05-02T12:52:33.650Z,274.33
2023-05-02T12:57:33.527Z,278.94
2023-05-02T13:02:33.514Z,285.18
2023-05-02T13:07:33.410Z,289.66
2023-05-02T13:12:33.317Z,293.24
2023-05-02T13:17:33.474Z,293.24
2023-05-02T13:22:33.237Z,292.46
2023-05-02T13:27:33.120Z,296.12
2023-05-02T13:32:33.151Z,300.68
2023-05-02T13:37:33.035Z,299.87
2023-05-02T13:42:32.922Z,300.68
2023-05-02T13:47:32.944Z,300.95
2023-05-02T13:52:32.823Z,305.67
2023-05-02T13:57:32.738Z,309.37
2023-05-02T14:02:32.723Z,313.76
2023-05-02T14:07:32.647Z,315.55
2023-05-02T14:12:32.557Z,319.19
2023-05-02T14:17:32.554Z,321.36
2023-05-02T14:22:32.504Z,325.46
2023-05-02T14:27:32.336Z,330.32
2023-05-02T14:32:32.298Z,331.97
2023-05-02T14:37:32.232Z,335.32
2023-05-02T14:42:32.129Z,340.83
2023-05-02T14:47:32.247Z,341.18
2023-05-02T14:52:32.064Z,339.44
2023-05-02T14:57:32.047Z,337.71
2023-05-02T15:02:31.965Z,338.75
2023-05-02T15:07:31.952Z,338.40
2023-05-02T15:12:31.740Z,341.54
2023-05-02T15:17:31.688Z,340.48
2023-05-02T15:22:31.603Z,344.73
2023-05-02T15:27:31.547Z,339.79
2023-05-02T15:32:31.521Z,344.37
2023-05-02T15:37:31.421Z,346.17
2023-05-02T15:42:31.400Z,347.26
2023-05-02T15:47:31.403Z,350.19
2023-05-02T15:52:31.285Z,355.44
2023-05-02T15:57:31.150Z,358.51
2023-05-02T16:02:31.113Z,360.85
2023-05-02T16:07:31.064Z,358.12
2023-05-02T16:12:31.234Z,358.51
2023-05-02T16:17:30.894Z,355.06
2023-05-02T16:22:30.830Z,353.55
2023-05-02T16:27:30.757Z,353.92
2023-05-02T16:32:30.886Z,355.44
2023-05-02T16:37:30.618Z,356.97
2023-05-02T16:42:30.556Z,364.42
2023-05-02T16:47:30.500Z,368.05
2023-05-02T16:52:30.702Z,368.05
2023-05-02T16:57:30.357Z,367.24
2023-05-02T17:02:30.371Z,375.13
2023-05-02T17:07:30.306Z,375.98
2023-05-02T17:12:30.156Z,383.79
2023-05-02T17:17:30.182Z,389.11
2023-05-02T17:22:30.033Z,387.77
2023-05-02T17:27:30.729Z,392.96
2023-05-02T17:32:29.965Z,395.04
2023-05-02T17:37:29.821Z,400.19
2023-05-02T17:42:29.736Z,402.10
2023-05-02T17:47:29.808Z,404.51
2023-05-02T17:52:29.713Z,407.45
2023-05-02T17:57:29.614Z,407.45
2023-05-02T18:02:29.623Z,407.69
2023-05-02T18:07:29.448Z,405.73
2023-05-02T18:12:29.383Z,404.27
2023-05-02T18:17:29.403Z,402.34
2023-05-02T18:22:29.232Z,399.48
2023-05-02T18:27:29.198Z,395.96
2023-05-02T18:32:29.144Z,396.89
2023-05-02T18:37:29.078Z,400.43
2023-05-02T18:42:29.017Z,399.72
2023-05-02T18:47:28.967Z,401.38
2023-05-02T18:52:28.851Z,401.38
2023-05-02T18:57:28.748Z,402.82
2023-05-02T19:02:28.774Z,405.24
2023-05-02T19:07:28.651Z,406.46
2023-05-02T19:12:28.605Z,408.43
2023-05-02T19:17:28.610Z,410.67
2023-05-02T19:22:28.451Z,413.95
2023-05-02T19:27:28.360Z,417.02
2023-05-02T19:32:28.326Z,418.32
2023-05-02T19:37:28.294Z,421.72
2023-05-02T19:42:28.192Z,427.60
2023-05-02T19:47:28.178Z,425.98
2023-05-02T19:52:28.052Z,430.33
2023-05-02T19:57:27.977Z,434.21
2023-05-02T20:02:28.061Z,438.73
2023-05-02T20:07:27.858Z,441.89
2023-05-02T20:12:27.766Z,446.57
2023-05-02T20:17:27.827Z,447.17
2023-05-02T20:22:27.670Z,454.40
2023-05-02T20:27:27.546Z,457.79
2023-05-02T20:32:27.562Z,456.86
2023-05-02T20:37:27.450Z,462.82
2023-05-02T20:42:27.425Z,467.63
2023-05-02T20:47:27.333Z,480.29
2023-05-02T20:52:27.246Z,490.06
2023-05-02T20:57:27.230Z,503.60
2023-05-02T21:02:27.137Z,508.92
2023-05-02T21:07:27.059Z,519.91
2023-05-02T21:12:27.016Z,525.59
2023-05-02T21:17:26.911Z,528.88
2023-05-02T21:22:26.904Z,531.38
2023-05-02T21:27:26.809Z,535.60
2023-05-02T21:32:26.774Z,539.89
2023-05-02T21:37:26.644Z,546.90
2023-05-02T21:42:26.592Z,553.18
2023-05-02T21:47:26.538Z,556.37
2023-05-02T21:52:26.417Z,558.68
2023-05-02T21:57:26.354Z,563.35
2023-05-02T22:02:26.389Z,566.18
2023-05-02T22:07:26.231Z,566.66
2023-05-02T22:12:26.179Z,569.53
2023-05-02T22:17:27.126Z,571.46
2023-05-02T22:22:26.062Z,572.43
2023-05-02T22:27:25.964Z,576.35
2023-05-02T22:32:26.622Z,578.32
2023-05-02T22:37:25.831Z,577.83
2023-05-02T22:42:25.787Z,582.32
2023-05-02T22:47:25.740Z,584.34
2023-05-02T22:52:25.684Z,589.45
2023-05-02T22:57:25.585Z,585.35
2023-05-02T23:02:25.599Z,587.90
2023-05-02T23:07:25.446Z,585.35
2023-05-02T23:12:26.237Z,583.33
2023-05-02T23:17:25.329Z,581.82
2023-05-02T23:22:25.290Z,579.82
2023-05-02T23:27:25.188Z,568.09
2023-05-02T23:32:25.100Z,566.18
2023-05-02T23:37:25.053Z,558.22
2023-05-02T23:42:25.004Z,552.27
2023-05-02T23:47:24.941Z,546.46
2023-05-02T23:52:24.847Z,546.46
2023-05-02T23:57:24.791Z,545.57
